createdAt,value
2019-05-19T00:01:00.282Z,55.55
2019-05-19T00:03:29.888Z,49.77
2019-05-19T00:06:00.418Z,64.07
2019-05-19T00:08:29.859Z,56.73
2019-05-19T00:10:59.310Z,53.87
2019-05-19T00:13:28.780Z,46.75
2019-05-19T00:15:58.253Z,55.03
2019-05-19T00:18:27.713Z,59.23
2019-05-19T00:20:57.190Z,55.05
2019-05-19T00:23:26.631Z,50.28
2019-05-19T00:25:56.210Z,60.00
2019-05-19T00:28:25.726Z,57.00
2019-05-19T00:30:55.245Z,53.13
2019-05-19T00:33:24.710Z,43.52
2019-05-19T00:35:54.215Z,51.63
2019-05-19T00:38:23.676Z,45.52
2019-05-19T00:40:53.163Z,54.05
2019-05-19T00:43:22.692Z,53.10
2019-05-19T00:45:52.140Z,50.65
2019-05-19T00:48:21.594Z,54.35
2019-05-19T00:50:51.114Z,52.67
2019-05-19T00:53:20.655Z,51.28
2019-05-19T00:55:51.546Z,56.77
2019-05-19T00:58:23.219Z,49.77
2019-05-19T01:00:52.678Z,52.38
2019-05-19T01:03:22.133Z,50.48
2019-05-19T01:05:51.655Z,52.15
2019-05-19T01:08:21.579Z,53.63
2019-05-19T01:10:51.039Z,53.35
2019-05-19T01:13:20.526Z,47.67
2019-05-19T01:15:49.979Z,51.80
2019-05-19T01:18:19.418Z,45.95
2019-05-19T01:20:49.027Z,63.73
2019-05-19T01:23:18.545Z,54.30
2019-05-19T01:25:48.002Z,59.65
2019-05-19T01:28:17.480Z,59.67
2019-05-19T01:30:47.663Z,57.45
2019-05-19T01:33:17.124Z,47.38
2019-05-19T01:35:46.585Z,53.65
2019-05-19T01:38:16.051Z,51.33
2019-05-19T01:40:45.534Z,49.93
2019-05-19T01:43:14.975Z,53.20
2019-05-19T01:45:44.426Z,53.80
2019-05-19T01:48:13.899Z,48.52
2019-05-19T01:50:43.361Z,50.98
2019-05-19T01:53:12.820Z,54.67
2019-05-19T01:55:42.296Z,52.00
2019-05-19T01:58:11.749Z,53.83
2019-05-19T02:00:41.190Z,53.83
2019-05-19T02:03:10.697Z,49.70
2019-05-19T02:05:40.141Z,60.58
2019-05-19T02:08:09.661Z,53.87
2019-05-19T02:10:39.076Z,49.63
2019-05-19T02:13:08.586Z,60.35
2019-05-19T02:15:38.087Z,50.30
2019-05-19T02:18:13.872Z,53.48
2019-05-19T02:20:56.062Z,54.23
2019-05-19T02:23:39.083Z,47.35
2019-05-19T02:26:08.550Z,53.20
2019-05-19T02:28:38.065Z,58.10
2019-05-19T02:31:07.581Z,61.02
2019-05-19T02:33:56.383Z,55.52
2019-05-19T02:36:25.837Z,58.50
2019-05-19T02:38:55.300Z,49.00
2019-05-19T02:41:26.758Z,59.35
2019-05-19T02:44:17.100Z,56.68
2019-05-19T02:46:47.296Z,56.08
2019-05-19T02:49:28.895Z,55.28
2019-05-19T02:52:01.490Z,67.78
2019-05-19T02:54:43.230Z,63.02
2019-05-19T02:57:13.235Z,58.90
2019-05-19T02:59:43.647Z,61.37
2019-05-19T03:02:14.770Z,59.67
2019-05-19T03:04:50.847Z,69.40
2019-05-19T03:07:23.559Z,52.03
2019-05-19T03:09:53.012Z,69.05
2019-05-19T03:12:22.481Z,55.10
2019-05-19T03:14:52.010Z,63.60
2019-05-19T03:17:21.469Z,59.53
2019-05-19T03:19:50.920Z,55.10
2019-05-19T03:22:20.392Z,63.78
2019-05-19T03:24:49.851Z,58.33
2019-05-19T03:27:19.323Z,55.88
2019-05-19T03:29:50.422Z,63.33
2019-05-19T03:32:21.546Z,55.50
2019-05-19T03:34:51.024Z,58.25
2019-05-19T03:37:28.615Z,51.77
2019-05-19T03:39:58.068Z,67.22
2019-05-19T03:42:27.513Z,60.35
2019-05-19T03:44:56.985Z,58.35
2019-05-19T03:47:26.426Z,57.83
2019-05-19T03:49:55.895Z,61.00
2019-05-19T03:52:25.356Z,62.65
2019-05-19T03:54:54.821Z,74.12
2019-05-19T03:57:24.276Z,59.25
2019-05-19T04:00:06.793Z,54.90
2019-05-19T04:02:36.562Z,64.20
2019-05-19T04:05:09.544Z,65.17
2019-05-19T04:07:38.993Z,71.17
2019-05-19T04:10:09.197Z,57.10
2019-05-19T04:12:38.668Z,59.38
2019-05-19T04:15:10.291Z,59.88
2019-05-19T04:17:39.768Z,60.55
2019-05-19T04:20:09.661Z,60.67
2019-05-19T04:22:39.153Z,48.33
2019-05-19T04:25:12.675Z,62.83
2019-05-19T04:27:42.140Z,63.48
2019-05-19T04:30:12.153Z,59.65
2019-05-19T04:33:02.478Z,59.10
2019-05-19T04:35:31.947Z,58.70
2019-05-19T04:38:01.435Z,54.98
2019-05-19T04:40:30.892Z,53.38
2019-05-19T04:43:00.351Z,59.30
2019-05-19T04:45:31.214Z,57.35
2019-05-19T04:48:00.674Z,63.90
2019-05-19T04:50:49.469Z,63.52
2019-05-19T04:53:18.934Z,52.00
2019-05-19T04:55:48.399Z,59.18
2019-05-19T04:58:17.850Z,70.65
2019-05-19T05:00:47.315Z,62.73
2019-05-19T05:03:16.964Z,63.73
2019-05-19T05:05:46.407Z,73.10
2019-05-19T05:08:28.625Z,60.98
2019-05-19T05:10:46.941Z,69.60
2019-05-19T05:13:16.434Z,65.78
2019-05-19T05:15:45.895Z,70.67
2019-05-19T05:18:17.423Z,66.53
2019-05-19T05:20:46.861Z,56.92
2019-05-19T05:23:16.323Z,68.97
2019-05-19T05:25:48.711Z,68.50
2019-05-19T05:28:18.173Z,68.65
2019-05-19T05:30:47.623Z,68.00
2019-05-19T05:33:17.107Z,61.85
2019-05-19T05:35:46.551Z,61.30
2019-05-19T05:38:16.007Z,63.65
2019-05-19T05:40:45.901Z,70.60
2019-05-19T05:43:20.294Z,60.92
2019-05-19T05:45:49.755Z,59.93
2019-05-19T05:48:20.762Z,76.53
2019-05-19T05:50:50.893Z,58.13
2019-05-19T05:53:22.682Z,54.67
2019-05-19T05:55:52.198Z,68.07
2019-05-19T05:58:21.678Z,55.78
2019-05-19T06:00:58.164Z,62.95
2019-05-19T06:03:27.606Z,59.38
2019-05-19T06:05:58.146Z,61.02
2019-05-19T06:08:27.598Z,59.55
2019-05-19T06:11:08.867Z,51.20
2019-05-19T06:13:38.300Z,65.70
2019-05-19T06:16:07.691Z,62.90
2019-05-19T06:18:37.161Z,63.50
2019-05-19T06:21:06.610Z,59.70
2019-05-19T06:23:36.092Z,68.55
2019-05-19T06:26:05.526Z,63.35
2019-05-19T06:28:34.996Z,63.78
2019-05-19T06:31:05.983Z,73.07
2019-05-19T06:33:35.483Z,53.13
2019-05-19T06:36:05.006Z,58.33
2019-05-19T06:38:34.483Z,61.23
2019-05-19T06:41:04.648Z,53.28
2019-05-19T06:43:34.095Z,61.33
2019-05-19T06:46:03.575Z,59.90
2019-05-19T06:48:33.099Z,64.27
2019-05-19T06:51:03.459Z,72.62
2019-05-19T06:53:32.895Z,66.60
2019-05-19T06:56:02.376Z,68.02
2019-05-19T06:58:32.008Z,59.42
2019-05-19T07:01:01.468Z,65.40
2019-05-19T07:03:30.934Z,62.27
2019-05-19T07:06:00.435Z,68.33
2019-05-19T07:08:30.049Z,60.03
2019-05-19T07:10:59.597Z,64.47
2019-05-19T07:13:29.063Z,61.65
2019-05-19T07:15:58.527Z,54.25
2019-05-19T07:18:27.977Z,62.25
2019-05-19T07:20:57.444Z,51.63
2019-05-19T07:23:28.534Z,62.33
2019-05-19T07:25:57.996Z,61.15
2019-05-19T07:28:27.498Z,58.95
2019-05-19T07:30:56.961Z,55.92
2019-05-19T07:33:26.431Z,44.58
2019-05-19T07:36:08.304Z,61.08
2019-05-19T07:38:39.417Z,51.70
2019-05-19T07:41:09.246Z,51.08
2019-05-19T07:43:38.702Z,51.75
2019-05-19T07:46:08.211Z,52.05
2019-05-19T07:48:37.675Z,43.15
2019-05-19T07:51:07.127Z,50.12
2019-05-19T07:53:43.125Z,50.67
2019-05-19T07:56:24.579Z,51.83
2019-05-19T07:58:54.064Z,49.75
2019-05-19T08:01:23.823Z,52.75
2019-05-19T08:03:54.811Z,51.18
2019-05-19T08:06:24.258Z,45.60
2019-05-19T08:08:53.711Z,48.35
2019-05-19T08:11:23.179Z,51.10
2019-05-19T08:13:52.685Z,49.70
2019-05-19T08:16:22.139Z,54.70
2019-05-19T08:18:51.610Z,46.60
2019-05-19T08:21:21.061Z,41.83
2019-05-19T08:23:59.752Z,40.23
2019-05-19T08:26:21.608Z,37.28
2019-05-19T08:29:10.486Z,43.75
2019-05-19T08:31:39.962Z,43.52
2019-05-19T08:34:09.456Z,35.30
2019-05-19T08:36:51.459Z,40.03
2019-05-19T08:39:20.949Z,41.65
2019-05-19T08:41:50.475Z,43.28
2019-05-19T08:44:19.935Z,37.25
2019-05-19T08:46:49.416Z,34.18
2019-05-19T08:49:21.635Z,35.30
2019-05-19T08:51:51.060Z,47.58
2019-05-19T08:54:21.622Z,40.85
2019-05-19T08:56:51.646Z,34.95
2019-05-19T08:59:21.990Z,31.57
2019-05-19T09:01:51.539Z,51.60
2019-05-19T09:04:21.012Z,37.65
2019-05-19T09:06:50.450Z,40.88
2019-05-19T09:09:19.914Z,37.53
2019-05-19T09:11:49.390Z,36.38
2019-05-19T09:14:18.829Z,39.98
2019-05-19T09:16:48.295Z,47.05
2019-05-19T09:19:17.912Z,37.75
2019-05-19T09:21:47.372Z,32.42
2019-05-19T09:24:29.528Z,41.10
2019-05-19T09:26:49.148Z,42.23
2019-05-19T09:29:18.630Z,45.52
2019-05-19T09:31:51.037Z,42.23
2019-05-19T09:34:20.597Z,39.80
2019-05-19T09:36:50.035Z,46.63
2019-05-19T09:39:19.501Z,37.10
2019-05-19T09:41:50.665Z,48.80
2019-05-19T09:44:20.180Z,42.25
2019-05-19T09:46:49.646Z,37.33
2019-05-19T09:49:34.286Z,37.63
2019-05-19T09:52:05.467Z,35.50
2019-05-19T09:54:44.644Z,40.67
2019-05-19T09:57:13.993Z,47.27
2019-05-19T09:59:47.313Z,37.13
2019-05-19T10:02:16.859Z,42.17
2019-05-19T10:04:46.293Z,38.13
2019-05-19T10:07:27.899Z,41.35
2019-05-19T10:10:02.507Z,48.60
2019-05-19T10:12:35.622Z,41.48
2019-05-19T10:15:06.982Z,38.63
2019-05-19T10:17:36.448Z,38.80
2019-05-19T10:20:07.665Z,44.18
2019-05-19T10:22:40.858Z,38.50
2019-05-19T10:25:21.874Z,41.83
2019-05-19T10:27:54.365Z,46.25
2019-05-19T10:30:29.837Z,40.33
2019-05-19T10:32:59.342Z,43.42
2019-05-19T10:35:28.782Z,38.20
2019-05-19T10:37:58.267Z,41.10
2019-05-19T10:40:27.719Z,43.38
2019-05-19T10:42:57.200Z,41.15
2019-05-19T10:45:26.639Z,33.48
2019-05-19T10:47:56.130Z,39.75
2019-05-19T10:50:25.623Z,38.60
2019-05-19T10:52:55.095Z,39.75
2019-05-19T10:55:36.228Z,40.95
2019-05-19T10:57:55.670Z,39.00
2019-05-19T11:00:25.201Z,41.70
2019-05-19T11:02:54.665Z,49.50
2019-05-19T11:05:24.151Z,41.23
2019-05-19T11:07:53.621Z,40.17
2019-05-19T11:10:23.086Z,50.75
2019-05-19T11:12:52.555Z,32.93
2019-05-19T11:15:22.943Z,41.95
2019-05-19T11:17:52.420Z,36.17
2019-05-19T11:20:22.184Z,41.25
2019-05-19T11:22:55.936Z,33.83
2019-05-19T11:25:33.393Z,37.73
2019-05-19T11:27:56.843Z,39.40
2019-05-19T11:30:28.008Z,39.63
2019-05-19T11:32:59.102Z,43.90
2019-05-19T11:35:28.641Z,45.95
2019-05-19T11:37:59.731Z,42.05
2019-05-19T11:40:29.205Z,39.35
2019-05-19T11:42:58.649Z,40.38
2019-05-19T11:45:29.282Z,41.77
2019-05-19T11:47:58.742Z,41.30
2019-05-19T11:50:29.822Z,39.83
2019-05-19T11:52:59.382Z,54.10
2019-05-19T11:55:28.880Z,45.10
2019-05-19T11:57:59.203Z,45.10
2019-05-19T12:00:28.677Z,40.65
2019-05-19T12:02:58.164Z,41.35
2019-05-19T12:05:27.831Z,44.73
2019-05-19T12:07:57.269Z,40.43
2019-05-19T12:10:26.751Z,43.23
2019-05-19T12:12:56.190Z,45.00
2019-05-19T12:15:25.807Z,48.38
2019-05-19T12:17:55.402Z,42.73
2019-05-19T12:20:24.926Z,40.15
2019-05-19T12:22:54.390Z,42.75
2019-05-19T12:25:23.956Z,41.10
2019-05-19T12:27:53.416Z,44.03
2019-05-19T12:30:24.501Z,44.50
2019-05-19T12:32:53.967Z,38.13
2019-05-19T12:35:23.493Z,45.88
2019-05-19T12:37:52.952Z,39.88
2019-05-19T12:40:22.827Z,47.33
2019-05-19T12:42:52.909Z,49.90
2019-05-19T12:45:22.716Z,43.48
2019-05-19T12:47:52.730Z,43.17
2019-05-19T12:50:22.938Z,43.50
2019-05-19T12:52:55.140Z,44.35
2019-05-19T12:55:24.571Z,38.25
2019-05-19T12:57:54.202Z,39.38
2019-05-19T13:00:23.699Z,42.78
2019-05-19T13:02:53.159Z,37.38
2019-05-19T13:05:22.888Z,36.73
2019-05-19T13:08:04.218Z,36.17
2019-05-19T13:10:33.751Z,45.00
2019-05-19T13:13:03.239Z,39.45
2019-05-19T13:15:32.774Z,34.15
2019-05-19T13:18:02.247Z,38.95
2019-05-19T13:20:31.731Z,32.60
2019-05-19T13:23:01.263Z,35.20
2019-05-19T13:25:30.797Z,36.30
2019-05-19T13:28:00.655Z,39.67
2019-05-19T13:30:30.112Z,40.38
2019-05-19T13:35:48.990Z,43.55
2019-05-19T13:38:18.451Z,36.77
2019-05-19T13:40:49.387Z,38.33
2019-05-19T13:43:18.858Z,41.35
2019-05-19T13:45:49.489Z,37.20
2019-05-19T13:48:18.999Z,40.35
2019-05-19T13:50:48.450Z,36.03
2019-05-19T13:53:17.918Z,42.80
2019-05-19T13:55:47.390Z,35.10
2019-05-19T13:58:16.861Z,44.42
2019-05-19T14:00:46.331Z,40.78
2019-05-19T14:03:16.063Z,43.92
2019-05-19T14:05:45.626Z,39.80
2019-05-19T14:08:16.540Z,40.23
2019-05-19T14:10:46.010Z,38.60
2019-05-19T14:13:28.226Z,48.55
2019-05-19T14:15:57.703Z,40.90
2019-05-19T14:18:27.168Z,40.95
2019-05-19T14:20:56.624Z,39.63
2019-05-19T14:23:26.135Z,44.03
2019-05-19T14:25:55.604Z,46.40
2019-05-19T14:28:25.065Z,44.65
2019-05-19T14:30:54.546Z,38.40
2019-05-19T14:33:25.058Z,41.48
2019-05-19T14:35:54.806Z,45.88
2019-05-19T14:38:24.261Z,44.88
2019-05-19T14:40:55.391Z,42.25
2019-05-19T14:43:26.547Z,48.35
2019-05-19T14:45:55.995Z,45.25
2019-05-19T14:48:25.450Z,46.15
2019-05-19T14:50:54.909Z,44.10
2019-05-19T14:53:24.366Z,40.38
2019-05-19T14:55:53.835Z,42.83
2019-05-19T14:58:23.286Z,35.13
2019-05-19T15:00:52.764Z,35.78
2019-05-19T15:03:22.252Z,30.52
2019-05-19T15:05:51.778Z,27.13
2019-05-19T15:08:21.252Z,30.20
2019-05-19T15:10:51.666Z,35.73
2019-05-19T15:13:21.161Z,34.58
2019-05-19T15:15:50.618Z,36.03
2019-05-19T15:18:20.740Z,29.82
2019-05-19T15:20:51.755Z,31.02
2019-05-19T15:23:25.979Z,36.35
2019-05-19T15:25:58.201Z,46.20
2019-05-19T15:28:27.602Z,39.08
2019-05-19T15:30:57.674Z,39.38
2019-05-19T15:33:27.193Z,34.08
2019-05-19T15:35:56.702Z,33.13
2019-05-19T15:38:26.280Z,33.92
2019-05-19T15:40:55.708Z,43.38
2019-05-19T15:43:25.178Z,40.67
2019-05-19T15:45:54.627Z,36.93
2019-05-19T15:48:24.091Z,27.10
2019-05-19T15:50:53.563Z,36.98
2019-05-19T15:53:23.013Z,26.37
2019-05-19T15:55:52.482Z,38.23
2019-05-19T15:58:22.039Z,36.13
2019-05-19T16:00:51.947Z,28.25
2019-05-19T16:03:21.468Z,31.48
2019-05-19T16:05:50.947Z,30.90
2019-05-19T16:08:20.379Z,35.98
2019-05-19T16:10:49.877Z,32.03
2019-05-19T16:13:21.977Z,30.25
2019-05-19T16:15:50.578Z,30.40
2019-05-19T16:18:20.077Z,35.70
2019-05-19T16:20:50.496Z,42.50
2019-05-19T16:23:19.966Z,40.08
2019-05-19T16:25:50.688Z,32.20
2019-05-19T16:28:30.349Z,33.20
2019-05-19T16:30:51.279Z,32.42
2019-05-19T16:33:20.883Z,29.67
2019-05-19T16:35:50.390Z,31.95
2019-05-19T16:38:19.831Z,41.30
2019-05-19T16:40:51.071Z,31.87
2019-05-19T16:43:22.048Z,40.43
2019-05-19T16:45:51.515Z,35.08
2019-05-19T16:48:23.410Z,30.97
2019-05-19T16:50:52.930Z,33.67
2019-05-19T16:53:22.424Z,37.28
2019-05-19T16:55:51.902Z,35.80
2019-05-19T16:58:21.850Z,37.50
2019-05-19T17:00:52.031Z,30.97
2019-05-19T17:03:21.497Z,32.25
2019-05-19T17:05:52.090Z,45.70
2019-05-19T17:08:21.567Z,32.20
2019-05-19T17:10:52.546Z,30.72
2019-05-19T17:13:24.298Z,33.35
2019-05-19T17:15:54.819Z,39.18
2019-05-19T17:18:24.358Z,33.95
2019-05-19T17:20:55.262Z,39.90
2019-05-19T17:23:26.206Z,36.30
2019-05-19T17:25:55.683Z,35.78
2019-05-19T17:28:25.109Z,44.75
2019-05-19T17:30:54.515Z,30.48
2019-05-19T17:33:23.988Z,41.20
2019-05-19T17:35:54.423Z,46.08
2019-05-19T17:38:23.878Z,36.10
2019-05-19T17:40:53.338Z,48.75
2019-05-19T17:43:22.831Z,35.00
2019-05-19T17:45:52.270Z,37.85
2019-05-19T17:48:26.494Z,35.33
2019-05-19T17:50:52.910Z,45.50
2019-05-19T17:53:22.375Z,40.58
2019-05-19T17:55:53.098Z,46.68
2019-05-19T17:58:23.312Z,42.60
2019-05-19T18:00:53.873Z,40.55
2019-05-19T18:03:25.656Z,47.05
2019-05-19T18:06:00.479Z,48.05
2019-05-19T18:08:29.950Z,45.35
2019-05-19T18:10:59.429Z,46.13
2019-05-19T18:13:32.693Z,45.17
2019-05-19T18:16:02.304Z,55.12
2019-05-19T18:18:43.829Z,60.38
2019-05-19T18:21:13.271Z,46.28
2019-05-19T18:23:42.735Z,42.90
2019-05-19T18:26:12.303Z,46.40
2019-05-19T18:28:42.844Z,52.10
2019-05-19T18:31:12.387Z,55.85
2019-05-19T18:33:41.886Z,57.98
2019-05-19T18:36:14.668Z,48.20
2019-05-19T18:38:45.616Z,52.05
2019-05-19T18:41:21.756Z,59.93
2019-05-19T18:43:51.281Z,45.12
2019-05-19T18:46:20.742Z,42.17
2019-05-19T18:48:51.953Z,54.18
2019-05-19T18:51:21.376Z,40.58
2019-05-19T18:53:50.864Z,56.73
2019-05-19T18:56:20.396Z,47.90
2019-05-19T18:58:49.886Z,50.03
2019-05-19T19:01:19.467Z,36.73
2019-05-19T19:03:49.069Z,48.50
2019-05-19T19:06:18.546Z,47.53
2019-05-19T19:08:48.003Z,45.90
2019-05-19T19:11:17.542Z,43.58
2019-05-19T19:13:47.298Z,54.70
2019-05-19T19:16:16.760Z,42.67
2019-05-19T19:18:46.214Z,41.92
2019-05-19T19:21:15.705Z,39.42
2019-05-19T19:23:45.391Z,45.48
2019-05-19T19:26:14.761Z,47.62
2019-05-19T19:28:44.246Z,44.42
2019-05-19T19:31:13.703Z,49.70
2019-05-19T19:33:43.154Z,42.00
2019-05-19T19:36:32.060Z,39.80
2019-05-19T19:39:01.494Z,37.48
2019-05-19T19:41:32.931Z,37.17
2019-05-19T19:44:02.463Z,43.05
2019-05-19T19:46:32.282Z,33.33
2019-05-19T19:49:06.492Z,54.48
2019-05-19T19:51:35.950Z,43.00
2019-05-19T19:54:05.562Z,55.33
2019-05-19T19:56:35.050Z,41.68
2019-05-19T19:59:04.566Z,31.42
2019-05-19T20:01:34.042Z,40.28
2019-05-19T20:04:03.722Z,39.65
2019-05-19T20:06:33.220Z,37.35
2019-05-19T20:09:02.705Z,37.53
2019-05-19T20:11:33.346Z,30.08
2019-05-19T20:14:02.984Z,32.55
2019-05-19T20:16:32.447Z,31.25
2019-05-19T20:19:01.976Z,40.92
2019-05-19T20:21:32.380Z,29.20
2019-05-19T20:24:03.305Z,37.75
2019-05-19T20:26:33.721Z,24.87
2019-05-19T20:29:03.187Z,45.43
2019-05-19T20:31:32.669Z,41.40
2019-05-19T20:34:02.138Z,47.05
2019-05-19T20:36:31.619Z,43.80
2019-05-19T20:39:01.158Z,40.05
2019-05-19T20:41:33.788Z,29.95
2019-05-19T20:44:03.746Z,28.45
2019-05-19T20:46:33.213Z,40.28
2019-05-19T20:49:02.735Z,42.03
2019-05-19T20:51:33.485Z,40.15
2019-05-19T20:54:06.159Z,40.05
2019-05-19T20:56:35.600Z,49.18
2019-05-19T20:59:05.089Z,26.80
2019-05-19T21:01:34.634Z,42.62
2019-05-19T21:04:04.093Z,40.23
2019-05-19T21:06:39.478Z,42.03
2019-05-19T21:09:09.009Z,51.80
2019-05-19T21:11:38.394Z,31.15
2019-05-19T21:14:07.848Z,42.30
2019-05-19T21:16:37.456Z,36.38
2019-05-19T21:19:08.520Z,39.90
2019-05-19T21:21:38.003Z,36.60
2019-05-19T21:24:07.491Z,41.70
2019-05-19T21:26:36.996Z,47.83
2019-05-19T21:29:09.052Z,38.95
2019-05-19T21:31:38.258Z,44.25
2019-05-19T21:34:20.280Z,41.08
2019-05-19T21:36:55.349Z,47.70
2019-05-19T21:39:28.435Z,42.98
2019-05-19T21:41:59.531Z,37.40
2019-05-19T21:44:29.007Z,39.70
2019-05-19T21:46:58.845Z,39.40
2019-05-19T21:49:28.263Z,46.35
2019-05-19T21:51:57.714Z,47.58
2019-05-19T21:54:27.530Z,48.25
2019-05-19T21:56:57.031Z,54.98
2019-05-19T21:59:26.482Z,48.55
2019-05-19T22:01:55.939Z,58.63
2019-05-19T22:04:25.480Z,54.95
2019-05-19T22:07:18.539Z,54.77
2019-05-19T22:09:49.067Z,57.03
2019-05-19T22:12:18.496Z,37.15
2019-05-19T22:14:47.965Z,49.00
2019-05-19T22:17:17.410Z,48.70
2019-05-19T22:19:46.870Z,53.35
2019-05-19T22:22:16.343Z,44.77
2019-05-19T22:24:45.799Z,46.18
2019-05-19T22:27:15.301Z,48.58
2019-05-19T22:29:53.806Z,44.42
2019-05-19T22:32:24.863Z,45.58
2019-05-19T22:34:54.858Z,38.48
2019-05-19T22:37:24.382Z,46.30
2019-05-19T22:39:53.886Z,47.20
2019-05-19T22:42:23.298Z,42.53
2019-05-19T22:44:52.745Z,46.77
2019-05-19T22:47:22.367Z,52.55
2019-05-19T22:49:51.830Z,51.77
2019-05-19T22:52:21.314Z,47.58
2019-05-19T22:57:37.667Z,60.90
2019-05-19T23:00:12.756Z,52.20
2019-05-19T23:02:44.117Z,63.55
2019-05-19T23:05:14.002Z,56.70
2019-05-19T23:07:44.047Z,51.55
2019-05-19T23:10:13.833Z,52.45
2019-05-19T23:12:50.618Z,52.70
2019-05-19T23:15:20.484Z,46.80
2019-05-19T23:17:49.935Z,62.33
2019-05-19T23:20:20.516Z,60.88
2019-05-19T23:22:51.681Z,48.52
2019-05-19T23:25:24.052Z,58.17
2019-05-19T23:27:53.462Z,59.73
2019-05-19T23:30:23.002Z,57.78
2019-05-19T23:32:52.458Z,53.78
2019-05-19T23:35:21.951Z,45.08
2019-05-19T23:37:53.279Z,42.00
2019-05-19T23:40:22.770Z,51.77
2019-05-19T23:42:52.203Z,61.58
2019-05-19T23:45:21.738Z,45.88
2019-05-19T23:47:51.664Z,52.60
2019-05-19T23:50:21.115Z,39.98
2019-05-19T23:53:09.920Z,48.87
2019-05-19T23:55:39.398Z,40.58
2019-05-19T23:58:08.883Z,43.25
